sensor_id;sensor_type;location;lat;lon;timestamp;temperature;humidity
69770;SHT30;57282;52.514;13.458;2022-08-01T00:02:08;22.95;55.98
69770;SHT30;57282;52.514;13.458;2022-08-01T00:04:35;22.86;56.27
69770;SHT30;57282;52.514;13.458;2022-08-01T00:07:01;22.82;56.46
69770;SHT30;57282;52.514;13.458;2022-08-01T00:09:29;22.81;56.68
69770;SHT30;57282;52.514;13.458;2022-08-01T00:11:57;22.82;56.47
69770;SHT30;57282;52.514;13.458;2022-08-01T00:14:23;22.81;56.65
69770;SHT30;57282;52.514;13.458;2022-08-01T00:16:50;22.86;56.38
69770;SHT30;57282;52.514;13.458;2022-08-01T00:19:17;22.76;56.95
69770;SHT30;57282;52.514;13.458;2022-08-01T00:21:46;22.71;57.42
69770;SHT30;57282;52.514;13.458;2022-08-01T00:24:13;22.71;57.68
69770;SHT30;57282;52.514;13.458;2022-08-01T00:26:40;22.71;58.08
69770;SHT30;57282;52.514;13.458;2022-08-01T00:29:08;22.68;58.48
69770;SHT30;57282;52.514;13.458;2022-08-01T00:31:34;22.68;58.83
69770;SHT30;57282;52.514;13.458;2022-08-01T00:34:01;22.49;60.13
69770;SHT30;57282;52.514;13.458;2022-08-01T00:36:28;22.49;60.05
69770;SHT30;57282;52.514;13.458;2022-08-01T00:38:54;22.48;60.35
69770;SHT30;57282;52.514;13.458;2022-08-01T00:41:21;22.44;61.24
69770;SHT30;57282;52.514;13.458;2022-08-01T00:43:48;22.43;61.59
69770;SHT30;57282;52.514;13.458;2022-08-01T00:46:16;22.37;62.56
69770;SHT30;57282;52.514;13.458;2022-08-01T00:48:42;22.21;63.62
69770;SHT30;57282;52.514;13.458;2022-08-01T00:51:10;22.28;63.45
69770;SHT30;57282;52.514;13.458;2022-08-01T00:53:37;22.14;64.32
69770;SHT30;57282;52.514;13.458;2022-08-01T00:56:04;22.14;64.54
69770;SHT30;57282;52.514;13.458;2022-08-01T00:58:32;22.18;64.41
69770;SHT30;57282;52.514;13.458;2022-08-01T01:00:59;22.18;64.43
69770;SHT30;57282;52.514;13.458;2022-08-01T01:03:27;22.21;64.51
69770;SHT30;57282;52.514;13.458;2022-08-01T01:06:04;22.08;65.25
69770;SHT30;57282;52.514;13.458;2022-08-01T01:08:42;22.10;65.48
69770;SHT30;57282;52.514;13.458;2022-08-01T01:11:19;22.08;65.50
69770;SHT30;57282;52.514;13.458;2022-08-01T01:13:55;22.01;66.04
69770;SHT30;57282;52.514;13.458;2022-08-01T01:16:28;22.01;66.04
69770;SHT30;57282;52.514;13.458;2022-08-01T01:19:01;22.07;65.84
69770;SHT30;57282;52.514;13.458;2022-08-01T01:22:00;22.01;66.21
69770;SHT30;57282;52.514;13.458;2022-08-01T01:24:45;21.92;66.52
69770;SHT30;57282;52.514;13.458;2022-08-01T01:27:29;21.93;66.47
69770;SHT30;57282;52.514;13.458;2022-08-01T01:30:07;21.96;66.47
69770;SHT30;57282;52.514;13.458;2022-08-01T01:32:38;21.94;66.55
69770;SHT30;57282;52.514;13.458;2022-08-01T01:35:10;21.94;66.66
69770;SHT30;57282;52.514;13.458;2022-08-01T01:37:41;21.93;66.67
69770;SHT30;57282;52.514;13.458;2022-08-01T01:40:11;21.87;66.70
69770;SHT30;57282;52.514;13.458;2022-08-01T01:42:41;21.90;66.84
69770;SHT30;57282;52.514;13.458;2022-08-01T01:45:11;21.86;66.88
69770;SHT30;57282;52.514;13.458;2022-08-01T01:47:39;21.89;66.77
69770;SHT30;57282;52.514;13.458;2022-08-01T01:50:11;21.87;66.91
69770;SHT30;57282;52.514;13.458;2022-08-01T01:52:40;21.90;66.85
69770;SHT30;57282;52.514;13.458;2022-08-01T01:55:10;21.89;67.00
69770;SHT30;57282;52.514;13.458;2022-08-01T01:57:40;21.85;67.00
69770;SHT30;57282;52.514;13.458;2022-08-01T02:00:12;21.89;66.90
69770;SHT30;57282;52.514;13.458;2022-08-01T02:02:41;21.86;67.01
69770;SHT30;57282;52.514;13.458;2022-08-01T02:05:11;21.85;66.95
69770;SHT30;57282;52.514;13.458;2022-08-01T02:07:39;21.77;67.26
69770;SHT30;57282;52.514;13.458;2022-08-01T02:10:09;21.75;67.24
69770;SHT30;57282;52.514;13.458;2022-08-01T02:12:41;21.73;67.29
69770;SHT30;57282;52.514;13.458;2022-08-01T02:15:12;21.76;67.17
69770;SHT30;57282;52.514;13.458;2022-08-01T02:17:43;21.72;67.22
69770;SHT30;57282;52.514;13.458;2022-08-01T02:20:13;21.76;67.08
69770;SHT30;57282;52.514;13.458;2022-08-01T02:22:42;21.65;67.58
69770;SHT30;57282;52.514;13.458;2022-08-01T02:25:19;21.66;67.28
69770;SHT30;57282;52.514;13.458;2022-08-01T02:27:54;21.67;67.44
69770;SHT30;57282;52.514;13.458;2022-08-01T02:30:30;21.67;67.44
69770;SHT30;57282;52.514;13.458;2022-08-01T02:33:04;21.65;67.64
69770;SHT30;57282;52.514;13.458;2022-08-01T02:35:35;21.67;67.58
69770;SHT30;57282;52.514;13.458;2022-08-01T02:38:05;21.66;67.59
69770;SHT30;57282;52.514;13.458;2022-08-01T02:40:40;21.59;68.02
69770;SHT30;57282;52.514;13.458;2022-08-01T02:43:10;21.49;68.44
69770;SHT30;57282;52.514;13.458;2022-08-01T02:45:45;21.49;68.30
69770;SHT30;57282;52.514;13.458;2022-08-01T02:48:18;21.52;68.29
69770;SHT30;57282;52.514;13.458;2022-08-01T02:50:49;21.45;68.81
69770;SHT30;57282;52.514;13.458;2022-08-01T02:53:21;21.45;68.74
69770;SHT30;57282;52.514;13.458;2022-08-01T02:55:52;21.41;69.36
69770;SHT30;57282;52.514;13.458;2022-08-01T02:58:21;21.42;69.18
69770;SHT30;57282;52.514;13.458;2022-08-01T03:00:51;21.41;69.32
69770;SHT30;57282;52.514;13.458;2022-08-01T03:03:18;21.38;69.75
69770;SHT30;57282;52.514;13.458;2022-08-01T03:05:47;21.41;69.79
69770;SHT30;57282;52.514;13.458;2022-08-01T03:08:15;21.37;69.99
69770;SHT30;57282;52.514;13.458;2022-08-01T03:10:45;21.35;69.94
69770;SHT30;57282;52.514;13.458;2022-08-01T03:13:14;21.34;70.32
69770;SHT30;57282;52.514;13.458;2022-08-01T03:15:43;21.25;70.42
69770;SHT30;57282;52.514;13.458;2022-08-01T03:18:15;21.27;70.62
69770;SHT30;57282;52.514;13.458;2022-08-01T03:20:44;21.25;70.68
69770;SHT30;57282;52.514;13.458;2022-08-01T03:23:12;21.19;70.63
69770;SHT30;57282;52.514;13.458;2022-08-01T03:25:43;21.17;70.76
69770;SHT30;57282;52.514;13.458;2022-08-01T03:28:13;21.19;70.80
69770;SHT30;57282;52.514;13.458;2022-08-01T03:30:45;21.17;70.63
69770;SHT30;57282;52.514;13.458;2022-08-01T03:33:14;21.15;70.62
69770;SHT30;57282;52.514;13.458;2022-08-01T03:35:46;21.12;70.86
69770;SHT30;57282;52.514;13.458;2022-08-01T03:38:18;21.11;70.93
69770;SHT30;57282;52.514;13.458;2022-08-01T03:40:52;21.09;71.01
69770;SHT30;57282;52.514;13.458;2022-08-01T03:43:25;21.12;71.07
69770;SHT30;57282;52.514;13.458;2022-08-01T03:46:00;21.14;71.20
69770;SHT30;57282;52.514;13.458;2022-08-01T03:48:36;21.09;71.44
69770;SHT30;57282;52.514;13.458;2022-08-01T03:51:07;21.02;71.80
69770;SHT30;57282;52.514;13.458;2022-08-01T03:53:36;21.02;72.08
69770;SHT30;57282;52.514;13.458;2022-08-01T03:56:07;21.08;71.79
69770;SHT30;57282;52.514;13.458;2022-08-01T03:58:36;21.08;71.83
69770;SHT30;57282;52.514;13.458;2022-08-01T04:01:06;21.14;71.63
69770;SHT30;57282;52.514;13.458;2022-08-01T04:03:35;21.12;71.68
69770;SHT30;57282;52.514;13.458;2022-08-01T04:06:04;21.08;71.89
69770;SHT30;57282;52.514;13.458;2022-08-01T04:08:36;21.09;72.00
69770;SHT30;57282;52.514;13.458;2022-08-01T04:11:04;21.00;72.42
69770;SHT30;57282;52.514;13.458;2022-08-01T04:13:31;21.02;72.37
69770;SHT30;57282;52.514;13.458;2022-08-01T04:15:58;21.01;72.54
69770;SHT30;57282;52.514;13.458;2022-08-01T04:18:25;21.04;72.41
69770;SHT30;57282;52.514;13.458;2022-08-01T04:20:53;21.04;72.55
69770;SHT30;57282;52.514;13.458;2022-08-01T04:23:23;21.08;72.36
69770;SHT30;57282;52.514;13.458;2022-08-01T04:25:52;21.02;72.74
69770;SHT30;57282;52.514;13.458;2022-08-01T04:28:21;21.02;72.73
69770;SHT30;57282;52.514;13.458;2022-08-01T04:30:53;21.09;72.73
69770;SHT30;57282;52.514;13.458;2022-08-01T04:33:22;21.04;73.14
69770;SHT30;57282;52.514;13.458;2022-08-01T04:35:54;21.01;73.36
69770;SHT30;57282;52.514;13.458;2022-08-01T04:38:26;21.02;73.68
69770;SHT30;57282;52.514;13.458;2022-08-01T04:40:55;21.02;74.08
69770;SHT30;57282;52.514;13.458;2022-08-01T04:43:23;21.02;74.29
69770;SHT30;57282;52.514;13.458;2022-08-01T04:45:51;20.98;74.82
69770;SHT30;57282;52.514;13.458;2022-08-01T04:48:18;20.98;74.84
69770;SHT30;57282;52.514;13.458;2022-08-01T04:50:45;21.00;74.96
69770;SHT30;57282;52.514;13.458;2022-08-01T04:53:14;21.04;74.85
69770;SHT30;57282;52.514;13.458;2022-08-01T04:55:42;21.05;74.75
69770;SHT30;57282;52.514;13.458;2022-08-01T04:58:11;20.94;75.31
69770;SHT30;57282;52.514;13.458;2022-08-01T05:00:40;20.88;75.67
69770;SHT30;57282;52.514;13.458;2022-08-01T05:03:07;20.90;75.64
69770;SHT30;57282;52.514;13.458;2022-08-01T05:05:34;20.91;75.71
69770;SHT30;57282;52.514;13.458;2022-08-01T05:08:01;20.97;75.50
69770;SHT30;57282;52.514;13.458;2022-08-01T05:10:29;20.97;75.46
69770;SHT30;57282;52.514;13.458;2022-08-01T05:12:55;20.97;75.65
69770;SHT30;57282;52.514;13.458;2022-08-01T05:15:22;20.95;75.79
69770;SHT30;57282;52.514;13.458;2022-08-01T05:17:49;20.97;75.99
69770;SHT30;57282;52.514;13.458;2022-08-01T05:20:16;20.98;76.32
69770;SHT30;57282;52.514;13.458;2022-08-01T05:22:42;20.92;76.42
69770;SHT30;57282;52.514;13.458;2022-08-01T05:25:09;20.91;76.62
69770;SHT30;57282;52.514;13.458;2022-08-01T05:27:37;20.91;76.80
69770;SHT30;57282;52.514;13.458;2022-08-01T05:30:06;20.97;76.74
69770;SHT30;57282;52.514;13.458;2022-08-01T05:32:34;20.94;76.81
69770;SHT30;57282;52.514;13.458;2022-08-01T05:35:00;20.92;76.78
69770;SHT30;57282;52.514;13.458;2022-08-01T05:37:28;20.98;76.83
69770;SHT30;57282;52.514;13.458;2022-08-01T05:39:55;20.92;77.02
69770;SHT30;57282;52.514;13.458;2022-08-01T05:42:22;20.85;77.25
69770;SHT30;57282;52.514;13.458;2022-08-01T05:44:50;20.85;77.26
69770;SHT30;57282;52.514;13.458;2022-08-01T05:47:16;20.91;77.08
69770;SHT30;57282;52.514;13.458;2022-08-01T05:49:43;20.90;77.21
69770;SHT30;57282;52.514;13.458;2022-08-01T05:52:11;20.94;77.14
69770;SHT30;57282;52.514;13.458;2022-08-01T05:54:38;21.04;76.70
69770;SHT30;57282;52.514;13.458;2022-08-01T05:57:04;21.01;76.78
69770;SHT30;57282;52.514;13.458;2022-08-01T05:59:32;21.01;76.79
69770;SHT30;57282;52.514;13.458;2022-08-01T06:02:00;21.09;76.60
69770;SHT30;57282;52.514;13.458;2022-08-01T06:04:26;21.12;76.52
69770;SHT30;57282;52.514;13.458;2022-08-01T06:06:53;21.04;76.88
69770;SHT30;57282;52.514;13.458;2022-08-01T06:09:20;21.11;76.74
69770;SHT30;57282;52.514;13.458;2022-08-01T06:11:46;21.09;76.75
69770;SHT30;57282;52.514;13.458;2022-08-01T06:14:13;21.11;76.54
69770;SHT30;57282;52.514;13.458;2022-08-01T06:16:39;21.01;77.00
69770;SHT30;57282;52.514;13.458;2022-08-01T06:19:07;20.98;77.10
69770;SHT30;57282;52.514;13.458;2022-08-01T06:21:34;21.01;76.92
69770;SHT30;57282;52.514;13.458;2022-08-01T06:24:01;21.05;76.82
69770;SHT30;57282;52.514;13.458;2022-08-01T06:26:27;21.12;76.29
69770;SHT30;57282;52.514;13.458;2022-08-01T06:28:54;21.04;76.80
69770;SHT30;57282;52.514;13.458;2022-08-01T06:31:20;21.05;76.82
69770;SHT30;57282;52.514;13.458;2022-08-01T06:33:47;21.08;76.72
69770;SHT30;57282;52.514;13.458;2022-08-01T06:36:15;21.09;76.73
69770;SHT30;57282;52.514;13.458;2022-08-01T06:38:42;21.08;76.73
69770;SHT30;57282;52.514;13.458;2022-08-01T06:41:08;21.02;76.98
69770;SHT30;57282;52.514;13.458;2022-08-01T06:43:35;21.08;76.82
69770;SHT30;57282;52.514;13.458;2022-08-01T06:46:02;21.04;76.76
69770;SHT30;57282;52.514;13.458;2022-08-01T06:48:28;21.07;76.94
69770;SHT30;57282;52.514;13.458;2022-08-01T06:50:55;21.12;76.67
69770;SHT30;57282;52.514;13.458;2022-08-01T06:53:35;21.18;76.29
69770;SHT30;57282;52.514;13.458;2022-08-01T06:56:04;21.21;75.75
69770;SHT30;57282;52.514;13.458;2022-08-01T06:58:33;21.18;75.74
69770;SHT30;57282;52.514;13.458;2022-08-01T07:01:00;21.19;75.47
69770;SHT30;57282;52.514;13.458;2022-08-01T07:03:27;21.24;75.30
69770;SHT30;57282;52.514;13.458;2022-08-01T07:05:54;21.31;75.05
69770;SHT30;57282;52.514;13.458;2022-08-01T07:08:21;21.29;75.05
69770;SHT30;57282;52.514;13.458;2022-08-01T07:10:49;21.28;74.96
69770;SHT30;57282;52.514;13.458;2022-08-01T07:13:15;21.28;74.85
69770;SHT30;57282;52.514;13.458;2022-08-01T07:15:46;21.29;74.72
69770;SHT30;57282;52.514;13.458;2022-08-01T07:18:13;21.29;74.83
69770;SHT30;57282;52.514;13.458;2022-08-01T07:20:39;21.37;74.44
69770;SHT30;57282;52.514;13.458;2022-08-01T07:23:06;21.34;74.44
69770;SHT30;57282;52.514;13.458;2022-08-01T07:25:33;21.38;74.26
69770;SHT30;57282;52.514;13.458;2022-08-01T07:28:01;21.37;74.44
69770;SHT30;57282;52.514;13.458;2022-08-01T07:30:28;21.46;74.17
69770;SHT30;57282;52.514;13.458;2022-08-01T07:32:54;21.43;74.09
69770;SHT30;57282;52.514;13.458;2022-08-01T07:35:21;21.39;74.27
69770;SHT30;57282;52.514;13.458;2022-08-01T07:37:48;21.34;74.55
69770;SHT30;57282;52.514;13.458;2022-08-01T07:40:16;21.25;74.82
69770;SHT30;57282;52.514;13.458;2022-08-01T07:42:43;21.32;74.63
69770;SHT30;57282;52.514;13.458;2022-08-01T07:45:12;21.35;74.79
69770;SHT30;57282;52.514;13.458;2022-08-01T07:47:39;21.34;74.97
69770;SHT30;57282;52.514;13.458;2022-08-01T07:50:07;21.29;75.25
69770;SHT30;57282;52.514;13.458;2022-08-01T07:52:34;21.27;75.31
69770;SHT30;57282;52.514;13.458;2022-08-01T07:55:01;21.18;75.88
69770;SHT30;57282;52.514;13.458;2022-08-01T07:57:28;21.21;75.86
69770;SHT30;57282;52.514;13.458;2022-08-01T07:59:55;21.24;74.90
69770;SHT30;57282;52.514;13.458;2022-08-01T08:02:23;21.27;74.12
69770;SHT30;57282;52.514;13.458;2022-08-01T08:04:50;21.35;73.25
69770;SHT30;57282;52.514;13.458;2022-08-01T08:07:17;21.32;73.29
69770;SHT30;57282;52.514;13.458;2022-08-01T08:09:43;21.34;73.19
69770;SHT30;57282;52.514;13.458;2022-08-01T08:12:10;21.35;73.05
69770;SHT30;57282;52.514;13.458;2022-08-01T08:14:37;21.39;72.71
69770;SHT30;57282;52.514;13.458;2022-08-01T08:17:04;21.41;72.89
69770;SHT30;57282;52.514;13.458;2022-08-01T08:19:33;21.39;72.87
69770;SHT30;57282;52.514;13.458;2022-08-01T08:22:02;21.37;73.01
69770;SHT30;57282;52.514;13.458;2022-08-01T08:24:29;21.43;72.89
69770;SHT30;57282;52.514;13.458;2022-08-01T08:26:57;21.41;73.04
69770;SHT30;57282;52.514;13.458;2022-08-01T08:29:26;21.38;73.20
69770;SHT30;57282;52.514;13.458;2022-08-01T08:31:55;21.37;73.41
69770;SHT30;57282;52.514;13.458;2022-08-01T08:34:22;21.43;72.83
69770;SHT30;57282;52.514;13.458;2022-08-01T08:36:50;21.49;72.78
69770;SHT30;57282;52.514;13.458;2022-08-01T08:39:18;21.42;72.38
69770;SHT30;57282;52.514;13.458;2022-08-01T08:41:45;21.49;71.86
69770;SHT30;57282;52.514;13.458;2022-08-01T08:44:12;21.52;71.74
69770;SHT30;57282;52.514;13.458;2022-08-01T08:46:41;21.58;71.33
69770;SHT30;57282;52.514;13.458;2022-08-01T08:49:09;21.56;71.25
69770;SHT30;57282;52.514;13.458;2022-08-01T08:51:38;21.60;71.02
69770;SHT30;57282;52.514;13.458;2022-08-01T08:54:07;21.66;70.47
69770;SHT30;57282;52.514;13.458;2022-08-01T08:56:38;21.69;70.15
69770;SHT30;57282;52.514;13.458;2022-08-01T08:59:05;21.63;70.18
69770;SHT30;57282;52.514;13.458;2022-08-01T09:01:32;21.63;70.31
69770;SHT30;57282;52.514;13.458;2022-08-01T09:04:00;21.67;69.52
69770;SHT30;57282;52.514;13.458;2022-08-01T09:06:27;21.73;68.92
69770;SHT30;57282;52.514;13.458;2022-08-01T09:08:55;21.73;68.59
69770;SHT30;57282;52.514;13.458;2022-08-01T09:11:23;21.75;68.55
69770;SHT30;57282;52.514;13.458;2022-08-01T09:14:05;21.73;68.18
69770;SHT30;57282;52.514;13.458;2022-08-01T09:16:35;21.82;68.19
69770;SHT30;57282;52.514;13.458;2022-08-01T09:19:08;21.89;67.86
69770;SHT30;57282;52.514;13.458;2022-08-01T09:21:39;22.04;66.90
69770;SHT30;57282;52.514;13.458;2022-08-01T09:24:20;22.06;66.42
69770;SHT30;57282;52.514;13.458;2022-08-01T09:26:48;22.10;66.02
69770;SHT30;57282;52.514;13.458;2022-08-01T09:29:21;21.98;66.36
69770;SHT30;57282;52.514;13.458;2022-08-01T09:31:49;22.11;65.79
69770;SHT30;57282;52.514;13.458;2022-08-01T09:34:24;22.15;66.00
69770;SHT30;57282;52.514;13.458;2022-08-01T09:36:53;22.14;65.62
69770;SHT30;57282;52.514;13.458;2022-08-01T09:39:22;22.18;65.80
69770;SHT30;57282;52.514;13.458;2022-08-01T09:41:52;22.20;66.01
69770;SHT30;57282;52.514;13.458;2022-08-01T09:44:37;22.08;66.51
69770;SHT30;57282;52.514;13.458;2022-08-01T09:47:05;22.04;67.07
69770;SHT30;57282;52.514;13.458;2022-08-01T09:49:33;22.01;67.20
69770;SHT30;57282;52.514;13.458;2022-08-01T09:52:10;22.08;67.03
69770;SHT30;57282;52.514;13.458;2022-08-01T09:54:40;22.03;67.30
69770;SHT30;57282;52.514;13.458;2022-08-01T09:57:14;22.04;67.83
69770;SHT30;57282;52.514;13.458;2022-08-01T09:59:43;22.06;67.66
69770;SHT30;57282;52.514;13.458;2022-08-01T10:02:13;22.07;67.62
69770;SHT30;57282;52.514;13.458;2022-08-01T10:04:52;22.10;67.41
69770;SHT30;57282;52.514;13.458;2022-08-01T10:07:20;22.14;67.34
69770;SHT30;57282;52.514;13.458;2022-08-01T10:09:47;22.10;67.49
69770;SHT30;57282;52.514;13.458;2022-08-01T10:12:17;22.20;67.39
69770;SHT30;57282;52.514;13.458;2022-08-01T10:14:47;22.14;67.69
69770;SHT30;57282;52.514;13.458;2022-08-01T10:17:17;22.13;67.91
69770;SHT30;57282;52.514;13.458;2022-08-01T10:19:46;22.10;68.02
69770;SHT30;57282;52.514;13.458;2022-08-01T10:22:16;22.17;67.66
69770;SHT30;57282;52.514;13.458;2022-08-01T10:24:46;22.10;67.77
69770;SHT30;57282;52.514;13.458;2022-08-01T10:27:16;22.10;67.81
69770;SHT30;57282;52.514;13.458;2022-08-01T10:29:47;22.07;67.73
69770;SHT30;57282;52.514;13.458;2022-08-01T10:32:18;22.06;67.74
69770;SHT30;57282;52.514;13.458;2022-08-01T10:34:45;22.10;67.67
69770;SHT30;57282;52.514;13.458;2022-08-01T10:37:13;22.07;67.86
69770;SHT30;57282;52.514;13.458;2022-08-01T10:39:40;22.10;67.96
69770;SHT30;57282;52.514;13.458;2022-08-01T10:42:09;22.10;67.94
69770;SHT30;57282;52.514;13.458;2022-08-01T10:44:39;22.06;67.96
69770;SHT30;57282;52.514;13.458;2022-08-01T10:47:09;22.14;67.59
69770;SHT30;57282;52.514;13.458;2022-08-01T10:49:41;22.17;67.62
69770;SHT30;57282;52.514;13.458;2022-08-01T10:52:14;22.18;67.56
69770;SHT30;57282;52.514;13.458;2022-08-01T10:54:41;22.22;67.34
69770;SHT30;57282;52.514;13.458;2022-08-01T10:57:08;22.20;67.67
69770;SHT30;57282;52.514;13.458;2022-08-01T10:59:36;22.15;67.55
69770;SHT30;57282;52.514;13.458;2022-08-01T11:02:29;22.13;67.00
69770;SHT30;57282;52.514;13.458;2022-08-01T11:05:01;22.13;67.20
69770;SHT30;57282;52.514;13.458;2022-08-01T11:07:43;22.20;66.97
69770;SHT30;57282;52.514;13.458;2022-08-01T11:10:21;22.27;67.10
69770;SHT30;57282;52.514;13.458;2022-08-01T11:12:50;22.31;66.95
69770;SHT30;57282;52.514;13.458;2022-08-01T11:15:23;22.34;67.04
69770;SHT30;57282;52.514;13.458;2022-08-01T11:17:51;22.33;66.94
69770;SHT30;57282;52.514;13.458;2022-08-01T11:20:21;22.38;66.44
69770;SHT30;57282;52.514;13.458;2022-08-01T11:23:17;22.37;66.21
69770;SHT30;57282;52.514;13.458;2022-08-01T11:26:06;22.37;66.15
69770;SHT30;57282;52.514;13.458;2022-08-01T11:28:38;22.38;65.98
69770;SHT30;57282;52.514;13.458;2022-08-01T11:31:28;22.25;66.59
69770;SHT30;57282;52.514;13.458;2022-08-01T11:33:56;22.21;67.26
69770;SHT30;57282;52.514;13.458;2022-08-01T11:36:23;22.20;68.19
69770;SHT30;57282;52.514;13.458;2022-08-01T11:39:10;22.18;69.00
69770;SHT30;57282;52.514;13.458;2022-08-01T11:41:40;22.01;70.15
69770;SHT30;57282;52.514;13.458;2022-08-01T11:44:08;21.90;70.85
69770;SHT30;57282;52.514;13.458;2022-08-01T11:46:52;21.80;71.73
69770;SHT30;57282;52.514;13.458;2022-08-01T11:52:13;21.77;71.49
69770;SHT30;57282;52.514;13.458;2022-08-01T11:54:42;21.98;70.14
69770;SHT30;57282;52.514;13.458;2022-08-01T11:57:12;21.97;68.78
69770;SHT30;57282;52.514;13.458;2022-08-01T11:59:41;21.93;69.36
69770;SHT30;57282;52.514;13.458;2022-08-01T12:02:23;21.92;69.15
69770;SHT30;57282;52.514;13.458;2022-08-01T12:04:53;21.92;69.43
69770;SHT30;57282;52.514;13.458;2022-08-01T12:07:22;21.94;69.48
69770;SHT30;57282;52.514;13.458;2022-08-01T12:09:57;22.03;69.34
69770;SHT30;57282;52.514;13.458;2022-08-01T12:12:27;22.11;68.93
69770;SHT30;57282;52.514;13.458;2022-08-01T12:14:56;22.22;68.72
69770;SHT30;57282;52.514;13.458;2022-08-01T12:17:31;22.31;68.30
69770;SHT30;57282;52.514;13.458;2022-08-01T12:20:00;22.40;67.90
69770;SHT30;57282;52.514;13.458;2022-08-01T12:22:27;22.48;67.45
69770;SHT30;57282;52.514;13.458;2022-08-01T12:24:54;22.52;67.10
69770;SHT30;57282;52.514;13.458;2022-08-01T12:27:25;22.51;67.00
69770;SHT30;57282;52.514;13.458;2022-08-01T12:29:53;22.51;66.66
69770;SHT30;57282;52.514;13.458;2022-08-01T12:32:25;22.52;66.77
69770;SHT30;57282;52.514;13.458;2022-08-01T12:35:00;22.49;66.64
69770;SHT30;57282;52.514;13.458;2022-08-01T12:37:28;22.49;68.08
69770;SHT30;57282;52.514;13.458;2022-08-01T12:39:55;22.40;68.73
69770;SHT30;57282;52.514;13.458;2022-08-01T12:42:22;22.41;68.42
69770;SHT30;57282;52.514;13.458;2022-08-01T12:44:51;22.44;68.26
69770;SHT30;57282;52.514;13.458;2022-08-01T12:47:19;22.45;68.45
69770;SHT30;57282;52.514;13.458;2022-08-01T12:49:47;22.51;68.28
69770;SHT30;57282;52.514;13.458;2022-08-01T12:52:17;22.49;68.70
69770;SHT30;57282;52.514;13.458;2022-08-01T12:55:00;22.52;69.70
69770;SHT30;57282;52.514;13.458;2022-08-01T12:57:28;22.58;69.57
69770;SHT30;57282;52.514;13.458;2022-08-01T13:00:05;22.56;69.25
69770;SHT30;57282;52.514;13.458;2022-08-01T13:02:41;22.64;68.99
69770;SHT30;57282;52.514;13.458;2022-08-01T13:05:09;22.66;68.64
69770;SHT30;57282;52.514;13.458;2022-08-01T13:07:40;22.73;68.55
69770;SHT30;57282;52.514;13.458;2022-08-01T13:10:10;22.77;68.06
69770;SHT30;57282;52.514;13.458;2022-08-01T13:12:38;22.82;69.06
69770;SHT30;57282;52.514;13.458;2022-08-01T13:15:29;22.85;68.56
69770;SHT30;57282;52.514;13.458;2022-08-01T13:18:26;22.86;68.81
69770;SHT30;57282;52.514;13.458;2022-08-01T13:21:10;22.85;68.43
69770;SHT30;57282;52.514;13.458;2022-08-01T13:23:40;22.85;67.67
69770;SHT30;57282;52.514;13.458;2022-08-01T13:26:08;22.86;66.93
69770;SHT30;57282;52.514;13.458;2022-08-01T13:28:35;22.83;66.24
69770;SHT30;57282;52.514;13.458;2022-08-01T13:31:05;22.86;66.21
69770;SHT30;57282;52.514;13.458;2022-08-01T13:33:43;22.89;66.15
69770;SHT30;57282;52.514;13.458;2022-08-01T13:36:12;22.91;66.47
69770;SHT30;57282;52.514;13.458;2022-08-01T13:38:41;22.95;66.44
69770;SHT30;57282;52.514;13.458;2022-08-01T13:41:26;22.91;66.29
69770;SHT30;57282;52.514;13.458;2022-08-01T13:43:53;22.91;66.20
69770;SHT30;57282;52.514;13.458;2022-08-01T13:46:20;22.93;66.49
69770;SHT30;57282;52.514;13.458;2022-08-01T13:48:47;23.10;65.60
69770;SHT30;57282;52.514;13.458;2022-08-01T13:51:13;23.06;64.82
69770;SHT30;57282;52.514;13.458;2022-08-01T13:53:41;23.09;63.81
69770;SHT30;57282;52.514;13.458;2022-08-01T13:56:08;23.02;63.40
69770;SHT30;57282;52.514;13.458;2022-08-01T13:58:35;23.06;63.39
69770;SHT30;57282;52.514;13.458;2022-08-01T14:01:02;23.06;64.17
69770;SHT30;57282;52.514;13.458;2022-08-01T14:03:29;23.02;65.49
69770;SHT30;57282;52.514;13.458;2022-08-01T14:05:56;22.98;66.99
69770;SHT30;57282;52.514;13.458;2022-08-01T14:08:22;22.95;67.06
69770;SHT30;57282;52.514;13.458;2022-08-01T14:10:50;22.88;67.62
69770;SHT30;57282;52.514;13.458;2022-08-01T14:13:19;22.95;67.55
69770;SHT30;57282;52.514;13.458;2022-08-01T14:15:45;22.93;68.06
69770;SHT30;57282;52.514;13.458;2022-08-01T14:18:12;22.88;68.22
69770;SHT30;57282;52.514;13.458;2022-08-01T14:20:39;22.91;68.40
69770;SHT30;57282;52.514;13.458;2022-08-01T14:23:06;22.92;68.32
69770;SHT30;57282;52.514;13.458;2022-08-01T14:25:33;22.93;67.98
69770;SHT30;57282;52.514;13.458;2022-08-01T14:28:01;22.88;67.82
69770;SHT30;57282;52.514;13.458;2022-08-01T14:30:27;22.88;68.00
69770;SHT30;57282;52.514;13.458;2022-08-01T14:32:54;22.89;67.74
69770;SHT30;57282;52.514;13.458;2022-08-01T14:35:21;22.99;67.31
69770;SHT30;57282;52.514;13.458;2022-08-01T14:37:48;23.06;66.80
69770;SHT30;57282;52.514;13.458;2022-08-01T14:40:14;23.10;66.57
69770;SHT30;57282;52.514;13.458;2022-08-01T14:42:41;23.17;67.01
69770;SHT30;57282;52.514;13.458;2022-08-01T14:45:12;23.21;66.58
69770;SHT30;57282;52.514;13.458;2022-08-01T14:47:41;23.17;66.80
69770;SHT30;57282;52.514;13.458;2022-08-01T14:50:10;23.24;66.35
69770;SHT30;57282;52.514;13.458;2022-08-01T14:52:40;23.27;65.90
69770;SHT30;57282;52.514;13.458;2022-08-01T14:55:09;23.27;65.43
69770;SHT30;57282;52.514;13.458;2022-08-01T14:57:39;23.27;65.74
69770;SHT30;57282;52.514;13.458;2022-08-01T15:00:09;23.27;65.31
69770;SHT30;57282;52.514;13.458;2022-08-01T15:02:38;23.26;65.19
69770;SHT30;57282;52.514;13.458;2022-08-01T15:05:06;23.20;65.25
69770;SHT30;57282;52.514;13.458;2022-08-01T15:07:34;23.21;65.48
69770;SHT30;57282;52.514;13.458;2022-08-01T15:10:02;23.19;65.52
69770;SHT30;57282;52.514;13.458;2022-08-01T15:12:29;23.12;65.86
69770;SHT30;57282;52.514;13.458;2022-08-01T15:14:56;23.12;65.80
69770;SHT30;57282;52.514;13.458;2022-08-01T15:17:25;23.14;65.66
69770;SHT30;57282;52.514;13.458;2022-08-01T15:19:55;23.17;65.66
69770;SHT30;57282;52.514;13.458;2022-08-01T15:22:24;23.16;65.38
69770;SHT30;57282;52.514;13.458;2022-08-01T15:24:53;23.16;64.33
69770;SHT30;57282;52.514;13.458;2022-08-01T15:27:21;23.14;63.27
69770;SHT30;57282;52.514;13.458;2022-08-01T15:29:48;23.16;62.72
69770;SHT30;57282;52.514;13.458;2022-08-01T15:32:15;23.14;62.39
69770;SHT30;57282;52.514;13.458;2022-08-01T15:34:43;23.12;62.42